Time;durP1;ratioP1;P1;durP2;ratioP2;P2;SDS_P1;SDS_P2;PMS_P1;PMS_P2;Temp;Humidity;BMP_temperature;BMP_pressure;BME280_temperature;BME280_humidity;BME280_pressure;Samples;Min_cycle;Max_cycle;Signal;HPM_P1;HPM_P2
2021/09/25 00:01:25;;;;;;;2.13;0.80;;;;;;;;;;5067958;28;20044;-59
2021/09/25 00:04:10;;;;;;;1.87;1.00;;;;;;;;;;5066668;28;20032;-63
2021/09/25 00:07:35;;;;;;;;;;;;;;;;;;;;;
2021/09/25 00:10:44;;;;;;;;;;;;;;;;;;;;;
2021/09/25 00:13:33;;;;;;;;;;;;;;;;;;;;;
2021/09/25 00:16:18;;;;;;;;;;;;;;;;;;;;;
2021/09/25 00:18:49;;;;;;;4.22;1.15;;;;;;;;;;5051803;28;20048;-60
2021/09/25 00:21:24;;;;;;;3.90;1.33;;;;;;;;;;5071653;28;20494;-60
2021/09/25 00:24:08;;;;;;;;;;;;;;;;;;;;;
2021/09/25 00:26:50;;;;;;;4.55;1.30;;;;;;;;;;5073976;28;20361;-59
2021/09/25 00:29:27;;;;;;;1.93;1.17;;;;;;;;;;5061509;28;20056;-59
2021/09/25 00:32:09;;;;;;;2.03;1.00;;;;;;;;;;5074157;28;20378;-59
2021/09/25 00:34:55;;;;;;;1.97;1.13;;;;;;;;;;5068827;28;20029;-59
2021/09/25 00:37:29;;;;;;;2.57;1.40;;;;;;;;;;5068674;28;20032;-59
2021/09/25 00:40:18;;;;;;;1.95;1.00;;;;;;;;;;5068835;28;20028;-59
2021/09/25 00:42:55;;;;;;;2.17;1.30;;;;;;;;;;5069983;28;20028;-59
2021/09/25 00:45:35;;;;;;;2.13;1.13;;;;;;;;;;5074034;28;20028;-59
2021/09/25 00:48:18;;;;;;;3.10;1.40;;;;;;;;;;5073313;28;20035;-59
2021/09/25 00:51:06;;;;;;;5.63;1.30;;;;;;;;;;5073993;28;20464;-59
2021/09/25 00:53:40;;;;;;;1.90;1.13;;;;;;;;;;5073841;28;20025;-60
2021/09/25 00:56:13;;;;;;;5.13;1.58;;;;;;;;;;5070490;28;20082;-59
2021/09/25 00:58:51;;;;;;;2.27;1.23;;;;;;;;;;5066941;28;20103;-59
2021/09/25 01:01:26;;;;;;;5.30;1.70;;;;;;;;;;5067927;28;20384;-59
2021/09/25 01:03:57;;;;;;;;;;;;;;;;;;5069113;28;20450;-60
2021/09/25 01:06:31;;;;;;;1.97;1.20;;;;;;;;;;5072407;28;20445;-59
2021/09/25 01:09:09;;;;;;;2.33;1.43;;;;;;;;;;5073671;28;20024;-59
2021/09/25 01:11:40;;;;;;;4.17;1.33;;;;;;;;;;5073641;28;20060;-59
2021/09/25 01:14:07;;;;;;;1.83;1.27;;;;;;;;;;5073126;28;20478;-59
2021/09/25 01:16:34;;;;;;;4.57;1.53;;;;;;;;;;5073441;28;20027;-59
2021/09/25 01:19:01;;;;;;;1.90;1.20;;;;;;;;;;5068428;28;20645;-59
2021/09/25 01:21:27;;;;;;;2.10;1.20;;;;;;;;;;5067987;28;20028;-60
2021/09/25 01:23:54;;;;;;;3.10;1.27;;;;;;;;;;5068331;28;20063;-59
2021/09/25 01:26:21;;;;;;;2.07;1.07;;;;;;;;;;5067882;28;20103;-59
2021/09/25 01:28:48;;;;;;;1.43;1.10;;;;;;;;;;5071520;28;20086;-60
2021/09/25 01:31:16;;;;;;;2.60;1.00;;;;;;;;;;5073179;28;20052;-59
2021/09/25 01:33:45;;;;;;;3.03;1.23;;;;;;;;;;5072538;28;20020;-59
2021/09/25 01:36:13;;;;;;;3.87;1.77;;;;;;;;;;5072664;28;20028;-59
2021/09/25 01:38:41;;;;;;;3.80;1.10;;;;;;;;;;5073144;28;20544;-59
2021/09/25 01:41:08;;;;;;;13.07;1.83;;;;;;;;;;5068325;28;20392;-59
2021/09/25 01:43:35;;;;;;;3.70;1.07;;;;;;;;;;5067633;28;20483;-59
2021/09/25 01:46:02;;;;;;;4.53;1.33;;;;;;;;;;5067761;28;20032;-59
2021/09/25 01:48:29;;;;;;;2.60;1.50;;;;;;;;;;5067675;28;20056;-59
2021/09/25 01:50:55;;;;;;;3.47;1.70;;;;;;;;;;5070608;28;20073;-59
2021/09/25 01:53:23;;;;;;;4.20;1.73;;;;;;;;;;5072515;28;20031;-59
2021/09/25 01:55:53;;;;;;;5.00;2.00;;;;;;;;;;5072710;28;20570;-59
2021/09/25 01:58:19;;;;;;;4.93;1.87;;;;;;;;;;5072575;28;20044;-59
2021/09/25 02:00:46;;;;;;;3.67;1.87;;;;;;;;;;5072626;28;20544;-59
2021/09/25 02:03:13;;;;;;;3.93;1.60;;;;;;;;;;5068359;28;20119;-59
2021/09/25 02:05:40;;;;;;;3.27;1.70;;;;;;;;;;5067202;28;20115;-60
2021/09/25 02:08:07;;;;;;;3.37;1.70;;;;;;;;;;5067204;28;20508;-59
2021/09/25 02:10:34;;;;;;;3.73;1.90;;;;;;;;;;5067414;28;20090;-59
2021/09/25 02:13:00;;;;;;;2.60;1.70;;;;;;;;;;5070626;28;20356;-59
2021/09/25 02:15:27;;;;;;;3.17;2.00;;;;;;;;;;5072149;28;20028;-59
2021/09/25 02:17:54;;;;;;;5.80;1.83;;;;;;;;;;5072378;28;20021;-59
2021/09/25 02:20:21;;;;;;;2.30;1.40;;;;;;;;;;5072380;28;20078;-59
2021/09/25 02:22:48;;;;;;;3.43;1.90;;;;;;;;;;5072109;28;20435;-59
2021/09/25 02:25:15;;;;;;;5.73;2.00;;;;;;;;;;5068407;28;20023;-59
2021/09/25 02:27:42;;;;;;;4.33;1.73;;;;;;;;;;5067389;28;20029;-59
2021/09/25 02:30:12;;;;;;;3.80;2.00;;;;;;;;;;5067001;28;20528;-59
2021/09/25 02:32:39;;;;;;;3.57;1.47;;;;;;;;;;5067375;28;20029;-59
2021/09/25 02:35:06;;;;;;;3.87;1.80;;;;;;;;;;5070436;28;20024;-59
2021/09/25 02:37:33;;;;;;;5.17;1.60;;;;;;;;;;5072166;28;20383;-59
2021/09/25 02:40:00;;;;;;;5.03;1.93;;;;;;;;;;5071790;28;20103;-61
2021/09/25 02:42:27;;;;;;;6.17;2.17;;;;;;;;;;5071945;28;20115;-61
2021/09/25 02:44:53;;;;;;;2.53;1.40;;;;;;;;;;5072725;28;20027;-61
2021/09/25 02:47:20;;;;;;;5.50;2.57;;;;;;;;;;5068715;28;20032;-61
2021/09/25 02:49:47;;;;;;;5.03;1.40;;;;;;;;;;5067112;28;20430;-59
2021/09/25 02:52:14;;;;;;;2.57;1.30;;;;;;;;;;5066904;28;20025;-59
2021/09/25 02:54:41;;;;;;;5.17;1.20;;;;;;;;;;5067103;28;20509;-59
2021/09/25 02:57:07;;;;;;;4.83;1.53;;;;;;;;;;5069121;28;20070;-59
2021/09/25 02:59:34;;;;;;;2.83;1.13;;;;;;;;;;5072009;28;20067;-59
2021/09/25 03:02:01;;;;;;;1.70;1.10;;;;;;;;;;5075122;28;20020;-59
2021/09/25 03:04:28;;;;;;;3.47;1.10;;;;;;;;;;5075542;28;20029;-59
2021/09/25 03:06:55;;;;;;;3.43;1.20;;;;;;;;;;5075915;28;20025;-58
2021/09/25 03:09:22;;;;;;;4.93;1.40;;;;;;;;;;5072733;28;20043;-59
2021/09/25 03:11:50;;;;;;;3.80;1.60;;;;;;;;;;5069787;28;20036;-59
2021/09/25 03:14:16;;;;;;;6.80;2.40;;;;;;;;;;5063430;28;20071;-59
2021/09/25 03:16:43;;;;;;;2.13;1.40;;;;;;;;;;5070723;28;20035;-59
2021/09/25 03:19:10;;;;;;;7.17;1.90;;;;;;;;;;5072876;28;20099;-58
2021/09/25 03:21:37;;;;;;;2.73;1.60;;;;;;;;;;5075326;28;20059;-61
2021/09/25 03:24:04;;;;;;;3.67;1.40;;;;;;;;;;5075344;28;20070;-61
2021/09/25 03:26:31;;;;;;;3.33;1.60;;;;;;;;;;5075714;28;20081;-59
2021/09/25 03:28:58;;;;;;;5.27;1.60;;;;;;;;;;5074936;28;20099;-59
2021/09/25 03:31:25;;;;;;;11.97;2.37;;;;;;;;;;5073051;28;20029;-59
2021/09/25 03:33:52;;;;;;;3.23;1.80;;;;;;;;;;5070483;28;20017;-59
2021/09/25 03:36:18;;;;;;;3.97;1.97;;;;;;;;;;5070068;28;20076;-58
2021/09/25 03:38:45;;;;;;;5.53;2.43;;;;;;;;;;5070191;28;20380;-58
2021/09/25 03:41:12;;;;;;;4.10;1.70;;;;;;;;;;5072047;28;20480;-59
2021/09/25 03:43:39;;;;;;;3.90;2.23;;;;;;;;;;5074863;28;20475;-58
2021/09/25 03:46:05;;;;;;;10.10;1.90;;;;;;;;;;5074915;28;20016;-59
2021/09/25 03:48:32;;;;;;;4.70;2.03;;;;;;;;;;5075187;28;20365;-58
2021/09/25 03:50:59;;;;;;;3.73;2.13;;;;;;;;;;5075219;28;20029;-58
2021/09/25 03:53:26;;;;;;;8.27;2.30;;;;;;;;;;5072795;28;20037;-59
2021/09/25 03:55:52;;;;;;;2.90;2.00;;;;;;;;;;5069994;28;20028;-58
2021/09/25 03:58:19;;;;;;;6.57;2.40;;;;;;;;;;5069659;28;20486;-58
2021/09/25 04:00:46;;;;;;;8.17;2.30;;;;;;;;;;5069479;28;20036;-59
2021/09/25 04:03:13;;;;;;;4.60;2.17;;;;;;;;;;5071148;28;20023;-58
2021/09/25 04:05:40;;;;;;;5.27;2.97;;;;;;;;;;5074899;28;20097;-58
2021/09/25 04:08:07;;;;;;;5.10;1.87;;;;;;;;;;5074307;28;20387;-58
2021/09/25 04:10:34;;;;;;;6.13;2.57;;;;;;;;;;5074554;28;20387;-59
2021/09/25 04:13:00;;;;;;;11.33;2.73;;;;;;;;;;5073546;28;20421;-58
2021/09/25 04:15:28;;;;;;;17.60;2.57;;;;;;;;;;5072603;28;20028;-58
2021/09/25 04:17:55;;;;;;;2.63;1.83;;;;;;;;;;5069500;28;20541;-58
2021/09/25 04:20:21;;;;;;;5.10;1.80;;;;;;;;;;5069421;28;20827;-59
2021/09/25 04:22:48;;;;;;;6.67;1.63;;;;;;;;;;5069622;28;20486;-58
2021/09/25 04:25:15;;;;;;;3.63;1.70;;;;;;;;;;5070541;28;20040;-58
2021/09/25 04:27:42;;;;;;;7.50;1.90;;;;;;;;;;5074495;28;20073;-58
2021/09/25 04:30:09;;;;;;;9.37;2.20;;;;;;;;;;5074281;28;20531;-58
2021/09/25 04:32:36;;;;;;;9.50;2.10;;;;;;;;;;5073578;28;20032;-58
2021/09/25 04:35:02;;;;;;;3.33;1.90;;;;;;;;;;5074363;28;20475;-58
2021/09/25 04:37:29;;;;;;;3.70;2.07;;;;;;;;;;5072903;28;20021;-58
2021/09/25 04:39:56;;;;;;;3.47;1.97;;;;;;;;;;5069117;28;20052;-58
2021/09/25 04:42:23;;;;;;;4.20;2.07;;;;;;;;;;5068531;28;20024;-58
2021/09/25 04:44:49;;;;;;;3.90;2.40;;;;;;;;;;5068928;28;20511;-58
2021/09/25 04:47:16;;;;;;;3.90;2.30;;;;;;;;;;5069369;28;20099;-59
2021/09/25 04:49:43;;;;;;;2.93;1.57;;;;;;;;;;5073687;28;20043;-58
2021/09/25 04:52:10;;;;;;;5.13;1.60;;;;;;;;;;5074008;28;20027;-58
2021/09/25 04:54:37;;;;;;;3.17;1.90;;;;;;;;;;5073733;28;20464;-58
2021/09/25 04:57:04;;;;;;;2.67;1.60;;;;;;;;;;5074040;28;20432;-58
2021/09/25 04:59:30;;;;;;;5.30;1.90;;;;;;;;;;5072473;28;20091;-58
2021/09/25 05:01:57;;;;;;;4.43;1.83;;;;;;;;;;5068783;28;20029;-58
2021/09/25 05:04:24;;;;;;;7.23;1.73;;;;;;;;;;5068243;28;20021;-58
2021/09/25 05:06:51;;;;;;;4.40;1.93;;;;;;;;;;5068665;28;20035;-58
2021/09/25 05:09:19;;;;;;;7.53;1.50;;;;;;;;;;5067822;28;20044;-59
2021/09/25 05:11:46;;;;;;;3.67;1.70;;;;;;;;;;5073487;28;20086;-58
2021/09/25 05:14:13;;;;;;;6.37;2.80;;;;;;;;;;5073549;28;20365;-58
2021/09/25 05:16:39;;;;;;;4.80;1.73;;;;;;;;;;5073221;28;20060;-58
2021/09/25 05:19:06;;;;;;;2.73;1.63;;;;;;;;;;5073266;28;20042;-58
2021/09/25 05:21:33;;;;;;;2.73;1.60;;;;;;;;;;5072246;28;20056;-59
2021/09/25 05:24:01;;;;;;;2.80;1.73;;;;;;;;;;5068222;28;20034;-58
2021/09/25 05:26:28;;;;;;;2.50;1.47;;;;;;;;;;5068086;28;20032;-58
2021/09/25 05:28:55;;;;;;;3.17;2.03;;;;;;;;;;5068421;28;20392;-58
2021/09/25 05:31:21;;;;;;;5.10;1.70;;;;;;;;;;5068275;28;20035;-58
2021/09/25 05:33:48;;;;;;;11.13;2.93;;;;;;;;;;5072588;28;20099;-58
2021/09/25 05:36:15;;;;;;;4.07;1.60;;;;;;;;;;5072649;28;20440;-58
2021/09/25 05:38:42;;;;;;;4.57;2.13;;;;;;;;;;5073261;28;20032;-58
2021/09/25 05:41:09;;;;;;;2.57;1.27;;;;;;;;;;5073029;28;20048;-58
2021/09/25 05:43:36;;;;;;;5.97;1.50;;;;;;;;;;5072670;28;20032;-58
2021/09/25 05:46:02;;;;;;;1.90;1.20;;;;;;;;;;5067861;28;20027;-58
2021/09/25 05:48:30;;;;;;;2.37;1.40;;;;;;;;;;5068095;28;20032;-58
2021/09/25 05:50:57;;;;;;;2.27;1.47;;;;;;;;;;5067675;28;20457;-58
2021/09/25 05:53:24;;;;;;;5.23;1.67;;;;;;;;;;5067260;28;20050;-58
2021/09/25 05:55:51;;;;;;;13.40;2.07;;;;;;;;;;5071877;28;20029;-58
2021/09/25 05:58:18;;;;;;;6.63;1.87;;;;;;;;;;5072801;28;20031;-58
2021/09/25 06:00:44;;;;;;;5.63;1.60;;;;;;;;;;5072793;28;20033;-58
2021/09/25 06:03:11;;;;;;;5.17;1.50;;;;;;;;;;5072805;28;20473;-58
2021/09/25 06:05:38;;;;;;;2.80;1.53;;;;;;;;;;5072632;28;20028;-58
2021/09/25 06:08:05;;;;;;;3.87;1.53;;;;;;;;;;5067494;28;20370;-58
2021/09/25 06:10:32;;;;;;;3.00;1.70;;;;;;;;;;5066813;28;20044;-58
2021/09/25 06:12:59;;;;;;;2.10;1.40;;;;;;;;;;5067792;28;20017;-58
2021/09/25 06:15:26;;;;;;;2.90;1.20;;;;;;;;;;5067552;28;20044;-58
2021/09/25 06:17:53;;;;;;;2.37;1.30;;;;;;;;;;5071453;28;20371;-59
2021/09/25 06:20:20;;;;;;;6.57;1.40;;;;;;;;;;5072054;28;20044;-58
2021/09/25 06:22:47;;;;;;;2.67;1.30;;;;;;;;;;5072230;28;20100;-59
2021/09/25 06:25:14;;;;;;;2.80;1.60;;;;;;;;;;5072283;28;20463;-58
2021/09/25 06:27:41;;;;;;;2.23;1.27;;;;;;;;;;5072298;28;20378;-58
2021/09/25 06:30:08;;;;;;;4.03;1.50;;;;;;;;;;5068122;28;20030;-58
2021/09/25 06:32:35;;;;;;;2.23;1.20;;;;;;;;;;5067029;28;20529;-58
2021/09/25 06:35:02;;;;;;;6.20;1.40;;;;;;;;;;5066969;28;20534;-58
2021/09/25 06:37:30;;;;;;;3.40;1.30;;;;;;;;;;5067349;28;20056;-58
2021/09/25 06:39:57;;;;;;;2.17;1.20;;;;;;;;;;5070683;28;20472;-58
2021/09/25 06:42:24;;;;;;;2.37;1.00;;;;;;;;;;5071858;28;20024;-58
2021/09/25 06:44:50;;;;;;;4.03;1.60;;;;;;;;;;5071782;28;20036;-58
2021/09/25 06:47:17;;;;;;;2.50;1.30;;;;;;;;;;5072273;28;20028;-58
2021/09/25 06:49:44;;;;;;;3.00;1.43;;;;;;;;;;5072313;28;20028;-58
2021/09/25 06:52:11;;;;;;;2.50;1.40;;;;;;;;;;5068121;28;20028;-58
2021/09/25 06:54:38;;;;;;;1.30;0.90;;;;;;;;;;5067219;28;20020;-58
2021/09/25 06:57:06;;;;;;;2.50;1.00;;;;;;;;;;5066469;28;20480;-58
2021/09/25 06:59:33;;;;;;;2.37;1.20;;;;;;;;;;5067086;28;20157;-58
2021/09/25 07:02:01;;;;;;;6.30;1.40;;;;;;;;;;5070265;28;20386;-58
2021/09/25 07:04:28;;;;;;;4.97;1.10;;;;;;;;;;5072345;28;20378;-58
2021/09/25 07:06:54;;;;;;;1.50;1.00;;;;;;;;;;5072105;28;20042;-58
2021/09/25 07:09:21;;;;;;;2.10;1.03;;;;;;;;;;5071498;28;20086;-58
2021/09/25 07:11:48;;;;;;;2.80;1.30;;;;;;;;;;5071943;28;20021;-58
2021/09/25 07:14:15;;;;;;;5.77;1.73;;;;;;;;;;5067761;28;20056;-58
2021/09/25 07:16:42;;;;;;;2.63;1.17;;;;;;;;;;5066938;28;20032;-58
2021/09/25 07:19:09;;;;;;;2.10;1.13;;;;;;;;;;5066782;28;20032;-58
2021/09/25 07:21:36;;;;;;;2.33;1.07;;;;;;;;;;5066180;28;20052;-58
2021/09/25 07:24:03;;;;;;;2.37;1.30;;;;;;;;;;5069769;28;20046;-58
2021/09/25 07:26:30;;;;;;;2.73;1.40;;;;;;;;;;5071835;28;20029;-58
2021/09/25 07:28:57;;;;;;;4.20;1.27;;;;;;;;;;5071811;28;20402;-58
2021/09/25 07:31:23;;;;;;;4.77;1.30;;;;;;;;;;5071471;28;20435;-58
2021/09/25 07:33:50;;;;;;;1.37;0.97;;;;;;;;;;5071985;28;20029;-58
2021/09/25 07:36:17;;;;;;;2.50;1.20;;;;;;;;;;5068651;28;20082;-58
2021/09/25 07:38:44;;;;;;;4.70;1.27;;;;;;;;;;5066684;28;20119;-58
2021/09/25 07:41:10;;;;;;;2.23;1.10;;;;;;;;;;5066226;28;20037;-59
2021/09/25 07:43:37;;;;;;;5.47;1.30;;;;;;;;;;5066660;28;20440;-58
2021/09/25 07:46:04;;;;;;;1.63;1.03;;;;;;;;;;5068737;28;20525;-58
2021/09/25 07:48:31;;;;;;;1.87;1.10;;;;;;;;;;5073875;28;20579;-58
2021/09/25 07:50:57;;;;;;;3.57;1.10;;;;;;;;;;5074951;28;20024;-58
2021/09/25 07:53:24;;;;;;;1.77;1.27;;;;;;;;;;5074736;28;20025;-59
2021/09/25 07:55:51;;;;;;;2.97;1.37;;;;;;;;;;5074796;28;20025;-59
2021/09/25 07:58:18;;;;;;;5.87;1.10;;;;;;;;;;5072291;28;20013;-58
2021/09/25 08:00:45;;;;;;;2.00;0.93;;;;;;;;;;5069898;28;20116;-58
2021/09/25 08:03:12;;;;;;;4.70;1.20;;;;;;;;;;5069716;28;20020;-58
2021/09/25 08:05:39;;;;;;;2.00;0.97;;;;;;;;;;5069704;28;20039;-58
2021/09/25 08:08:06;;;;;;;2.07;1.00;;;;;;;;;;5071789;28;20032;-58
2021/09/25 08:10:33;;;;;;;2.53;0.90;;;;;;;;;;5074369;28;20028;-58
2021/09/25 08:13:00;;;;;;;2.63;0.90;;;;;;;;;;5074722;28;20119;-58
2021/09/25 08:15:26;;;;;;;3.20;1.30;;;;;;;;;;5074749;28;20033;-58
2021/09/25 08:17:53;;;;;;;5.87;1.07;;;;;;;;;;5074038;28;20028;-58
2021/09/25 08:20:21;;;;;;;3.23;1.03;;;;;;;;;;5072205;28;20510;-58
2021/09/25 08:22:48;;;;;;;3.73;1.00;;;;;;;;;;5069328;28;20058;-58
2021/09/25 08:25:15;;;;;;;1.87;1.00;;;;;;;;;;5069067;28;20039;-58
2021/09/25 08:27:41;;;;;;;3.33;1.33;;;;;;;;;;5069330;28;20043;-58
2021/09/25 08:30:09;;;;;;;2.17;1.27;;;;;;;;;;5070621;28;20025;-58
2021/09/25 08:32:36;;;;;;;2.23;1.00;;;;;;;;;;5074309;28;20082;-58
2021/09/25 08:35:07;;;;;;;1.10;0.80;;;;;;;;;;5074003;28;20020;-58
2021/09/25 08:37:36;;;;;;;1.53;0.83;;;;;;;;;;5074361;28;20140;-58
2021/09/25 08:40:04;;;;;;;2.17;0.90;;;;;;;;;;5074150;28;20021;-58
2021/09/25 08:42:31;;;;;;;1.70;1.10;;;;;;;;;;5071627;28;20041;-58
2021/09/25 08:44:58;;;;;;;2.90;1.13;;;;;;;;;;5069034;28;20082;-58
2021/09/25 08:47:25;;;;;;;5.13;1.20;;;;;;;;;;5069007;28;20028;-58
2021/09/25 08:49:52;;;;;;;5.20;1.10;;;;;;;;;;5068711;28;20074;-58
2021/09/25 08:52:19;;;;;;;1.40;1.00;;;;;;;;;;5070465;28;20127;-58
2021/09/25 08:54:46;;;;;;;2.43;1.30;;;;;;;;;;5073558;28;20513;-58
2021/09/25 08:57:13;;;;;;;1.90;1.10;;;;;;;;;;5073903;28;20352;-58
2021/09/25 08:59:40;;;;;;;3.43;0.90;;;;;;;;;;5073252;28;20082;-58
2021/09/25 09:02:14;;;;;;;2.53;1.30;;;;;;;;;;5073731;28;20036;-58
2021/09/25 09:04:45;;;;;;;1.95;1.17;;;;;;;;;;5071504;28;20032;-58
2021/09/25 09:07:19;;;;;;;1.77;1.07;;;;;;;;;;5068290;28;20028;-58
2021/09/25 09:09:47;;;;;;;3.83;1.50;;;;;;;;;;5068668;28;20029;-58
2021/09/25 09:12:14;;;;;;;3.53;1.30;;;;;;;;;;5068706;28;20466;-58
2021/09/25 09:14:48;;;;;;;2.17;1.27;;;;;;;;;;5070241;28;20043;-58
2021/09/25 09:17:15;;;;;;;3.87;1.10;;;;;;;;;;5073959;28;20484;-58
2021/09/25 09:19:42;;;;;;;2.30;1.10;;;;;;;;;;5072850;28;20089;-58
2021/09/25 09:22:10;;;;;;;3.27;1.37;;;;;;;;;;5073393;28;20060;-58
2021/09/25 09:24:46;;;;;;;2.57;1.20;;;;;;;;;;5073293;28;20423;-58
2021/09/25 09:27:19;;;;;;;1.43;0.93;;;;;;;;;;5069881;28;20029;-58
2021/09/25 09:29:46;;;;;;;5.13;1.20;;;;;;;;;;5068285;28;20048;-58
2021/09/25 09:32:13;;;;;;;2.27;1.10;;;;;;;;;;5068041;28;20064;-58
2021/09/25 09:34:41;;;;;;;6.77;1.40;;;;;;;;;;5068111;28;20024;-58
2021/09/25 09:37:26;;;;;;;2.40;1.03;;;;;;;;;;5070109;28;20025;-58
2021/09/25 09:40:04;;;;;;;3.25;1.30;;;;;;;;;;5073158;28;20030;-58
2021/09/25 09:42:43;;;;;;;4.30;1.43;;;;;;;;;;5073045;28;20044;-58
2021/09/25 09:45:09;;;;;;;1.77;1.10;;;;;;;;;;5073019;28;20077;-58
2021/09/25 09:47:46;;;;;;;2.30;1.10;;;;;;;;;;5072890;28;20025;-58
2021/09/25 09:50:16;;;;;;;3.80;1.13;;;;;;;;;;5068065;28;20032;-58
2021/09/25 09:52:43;;;;;;;3.13;1.03;;;;;;;;;;5067742;28;20035;-58
2021/09/25 09:55:10;;;;;;;2.07;1.03;;;;;;;;;;5067868;28;20025;-58
2021/09/25 09:57:36;;;;;;;3.60;1.43;;;;;;;;;;5067785;28;20082;-58
2021/09/25 10:00:04;;;;;;;1.90;1.30;;;;;;;;;;5071538;28;20043;-58
2021/09/25 10:02:31;;;;;;;2.53;1.43;;;;;;;;;;5071899;28;20391;-58
2021/09/25 10:04:58;;;;;;;5.03;2.13;;;;;;;;;;5072676;28;20021;-57
2021/09/25 10:07:25;;;;;;;9.47;2.10;;;;;;;;;;5072604;28;20032;-58
2021/09/25 10:09:53;;;;;;;2.63;1.43;;;;;;;;;;5071883;28;20024;-58
2021/09/25 10:12:20;;;;;;;3.40;1.70;;;;;;;;;;5068171;28;20039;-58
2021/09/25 10:14:47;;;;;;;4.80;1.80;;;;;;;;;;5067186;28;20029;-58
2021/09/25 10:17:15;;;;;;;2.77;1.50;;;;;;;;;;5067291;28;20021;-58
2021/09/25 10:19:43;;;;;;;2.40;1.50;;;;;;;;;;5067135;28;20124;-58
2021/09/25 10:22:14;;;;;;;6.07;1.70;;;;;;;;;;5070933;28;20489;-58
2021/09/25 10:24:59;;;;;;;4.83;2.97;;;;;;;;;;5072404;28;20383;-58
2021/09/25 10:27:32;;;;;;;10.15;4.97;;;;;;;;;;5071922;28;20033;-59
2021/09/25 10:30:00;;;;;;;6.10;3.83;;;;;;;;;;5072684;28;20101;-58
2021/09/25 10:32:28;;;;;;;6.20;4.13;;;;;;;;;;5072524;28;20029;-58
2021/09/25 10:35:06;;;;;;;4.10;2.93;;;;;;;;;;5067035;28;20032;-58
2021/09/25 10:37:37;;;;;;;6.23;4.37;;;;;;;;;;5066837;28;20058;-59
2021/09/25 10:40:05;;;;;;;7.23;4.50;;;;;;;;;;5066755;28;20174;-58
2021/09/25 10:42:51;;;;;;;5.00;3.30;;;;;;;;;;5067134;28;20476;-58
2021/09/25 10:45:34;;;;;;;6.23;2.00;;;;;;;;;;5071980;28;20029;-58
2021/09/25 10:48:09;;;;;;;3.50;1.87;;;;;;;;;;5071871;28;20498;-58
2021/09/25 10:50:36;;;;;;;4.70;2.47;;;;;;;;;;5072054;28;20538;-58
2021/09/25 10:53:11;;;;;;;4.93;3.30;;;;;;;;;;5072178;28;20025;-58
2021/09/25 10:55:41;;;;;;;4.13;2.60;;;;;;;;;;5070097;28;20035;-58
2021/09/25 10:58:12;;;;;;;4.30;3.00;;;;;;;;;;5067060;28;20506;-57
2021/09/25 11:00:49;;;;;;;4.83;3.10;;;;;;;;;;5066697;28;20058;-58
2021/09/25 11:03:34;;;;;;;4.33;2.73;;;;;;;;;;5066779;28;20067;-59
2021/09/25 11:06:02;;;;;;;4.13;2.83;;;;;;;;;;5069558;28;20511;-58
2021/09/25 11:08:32;;;;;;;5.33;2.60;;;;;;;;;;5071352;28;20047;-58
2021/09/25 11:11:10;;;;;;;5.50;2.70;;;;;;;;;;5071995;28;20020;-58
2021/09/25 11:13:55;;;;;;;5.73;2.80;;;;;;;;;;5071760;28;20025;-58
2021/09/25 11:16:40;;;;;;;3.20;1.90;;;;;;;;;;5071559;28;20028;-58
2021/09/25 11:19:11;;;;;;;4.03;2.60;;;;;;;;;;5067029;28;20040;-58
2021/09/25 11:21:37;;;;;;;3.90;2.30;;;;;;;;;;5067674;28;20039;-58
2021/09/25 11:24:04;;;;;;;6.50;1.80;;;;;;;;;;5070456;28;20020;-58
2021/09/25 11:26:35;;;;;;;7.27;2.30;;;;;;;;;;5070206;28;20054;-59
2021/09/25 11:29:08;;;;;;;9.60;2.37;;;;;;;;;;5075110;28;20032;-58
2021/09/25 11:31:35;;;;;;;6.97;3.03;;;;;;;;;;5075519;28;20399;-58
2021/09/25 11:34:03;;;;;;;7.07;2.47;;;;;;;;;;5075357;28;20020;-58
2021/09/25 11:36:30;;;;;;;6.57;2.80;;;;;;;;;;5075130;28;20112;-58
2021/09/25 11:38:56;;;;;;;10.97;3.23;;;;;;;;;;5075088;28;20020;-58
2021/09/25 11:41:23;;;;;;;6.17;2.57;;;;;;;;;;5070142;28;20040;-58
2021/09/25 11:43:56;;;;;;;6.00;2.70;;;;;;;;;;5070058;28;20032;-58
2021/09/25 11:46:25;;;;;;;4.30;2.43;;;;;;;;;;5070140;28;20443;-58
2021/09/25 11:49:00;;;;;;;8.87;3.00;;;;;;;;;;5070222;28;20025;-58
2021/09/25 11:51:27;;;;;;;3.53;2.30;;;;;;;;;;5074536;28;20029;-58
2021/09/25 11:53:56;;;;;;;4.03;2.43;;;;;;;;;;5074671;28;20025;-58
2021/09/25 11:56:28;;;;;;;7.33;2.70;;;;;;;;;;5074981;28;20029;-59
2021/09/25 11:58:58;;;;;;;7.10;3.10;;;;;;;;;;5075044;28;20081;-58
2021/09/25 12:01:25;;;;;;;8.03;2.87;;;;;;;;;;5074369;28;20115;-58
2021/09/25 12:03:52;;;;;;;4.10;2.60;;;;;;;;;;5069685;28;20078;-58
2021/09/25 12:06:19;;;;;;;3.63;2.17;;;;;;;;;;5069890;28;20063;-58
2021/09/25 12:08:50;;;;;;;6.33;2.63;;;;;;;;;;5069203;28;20021;-58
2021/09/25 12:11:17;;;;;;;5.33;2.43;;;;;;;;;;5069667;28;20036;-58
2021/09/25 12:13:44;;;;;;;7.63;2.30;;;;;;;;;;5074489;28;20028;-60
2021/09/25 12:16:12;;;;;;;4.23;2.43;;;;;;;;;;5074193;28;20020;-58
2021/09/25 12:18:40;;;;;;;6.90;1.87;;;;;;;;;;5074640;28;20460;-58
2021/09/25 12:21:07;;;;;;;4.70;2.20;;;;;;;;;;5074357;28;20043;-59
2021/09/25 12:23:36;;;;;;;4.27;2.00;;;;;;;;;;5074084;28;20029;-58
2021/09/25 12:26:04;;;;;;;4.17;2.30;;;;;;;;;;5069165;28;20472;-57
2021/09/25 12:28:38;;;;;;;5.50;2.43;;;;;;;;;;5069533;28;20105;-58
2021/09/25 12:31:09;;;;;;;3.63;2.00;;;;;;;;;;5069249;28;20479;-58
2021/09/25 12:33:37;;;;;;;5.53;2.03;;;;;;;;;;5068412;28;20111;-58
2021/09/25 12:36:04;;;;;;;3.53;1.60;;;;;;;;;;5073955;28;20031;-58
2021/09/25 12:38:32;;;;;;;4.00;1.50;;;;;;;;;;5074099;28;20373;-58
2021/09/25 12:41:04;;;;;;;3.30;1.80;;;;;;;;;;5074106;28;20511;-58
2021/09/25 12:43:38;;;;;;;7.53;1.53;;;;;;;;;;5073728;28;20426;-59
2021/09/25 12:46:11;;;;;;;5.28;1.65;;;;;;;;;;5073011;28;20021;-59
2021/09/25 12:48:56;;;;;;;8.67;4.27;;;;;;;;;;5068516;28;20036;-58
2021/09/25 12:51:27;;;;;;;3.95;2.00;;;;;;;;;;5069062;28;20024;-59
2021/09/25 12:53:54;;;;;;;6.03;2.20;;;;;;;;;;5068853;28;20025;-58
2021/09/25 12:56:21;;;;;;;7.23;2.33;;;;;;;;;;5069753;28;20057;-58
2021/09/25 12:58:51;;;;;;;6.00;2.27;;;;;;;;;;5073939;28;20021;-58
2021/09/25 13:01:31;;;;;;;6.73;2.60;;;;;;;;;;5072805;28;20366;-58
2021/09/25 13:04:13;;;;;;;6.07;3.20;;;;;;;;;;5073681;28;20182;-58
2021/09/25 13:06:43;;;;;;;6.77;2.40;;;;;;;;;;5073399;28;20107;-58
2021/09/25 13:09:10;;;;;;;7.43;3.47;;;;;;;;;;5071052;28;20523;-58
2021/09/25 13:11:37;;;;;;;7.30;3.27;;;;;;;;;;5068722;28;20024;-58
2021/09/25 13:14:09;;;;;;;4.83;2.87;;;;;;;;;;5068526;28;20086;-58
2021/09/25 13:16:37;;;;;;;4.53;3.10;;;;;;;;;;5068428;28;20526;-58
2021/09/25 13:19:04;;;;;;;8.43;4.13;;;;;;;;;;5069873;28;20025;-58
2021/09/25 13:21:31;;;;;;;9.43;3.90;;;;;;;;;;5073411;28;20074;-58
2021/09/25 13:23:59;;;;;;;10.07;4.60;;;;;;;;;;5073340;28;20028;-58
2021/09/25 13:26:26;;;;;;;8.43;4.10;;;;;;;;;;5073150;28;20407;-58
2021/09/25 13:28:53;;;;;;;8.47;4.37;;;;;;;;;;5073343;28;20082;-58
2021/09/25 13:31:20;;;;;;;9.03;3.97;;;;;;;;;;5070632;28;20024;-58
2021/09/25 13:33:46;;;;;;;10.67;4.30;;;;;;;;;;5067614;28;20021;-58
2021/09/25 13:36:13;;;;;;;10.37;4.20;;;;;;;;;;5067910;28;20020;-58
2021/09/25 13:38:40;;;;;;;10.53;5.17;;;;;;;;;;5068109;28;20544;-58
2021/09/25 13:41:07;;;;;;;7.40;4.30;;;;;;;;;;5070062;28;20029;-58
2021/09/25 13:43:34;;;;;;;6.60;4.50;;;;;;;;;;5073080;28;20025;-58
2021/09/25 13:46:00;;;;;;;6.77;4.30;;;;;;;;;;5072319;28;20083;-58
2021/09/25 13:48:27;;;;;;;10.40;3.87;;;;;;;;;;5072867;28;20353;-58
2021/09/25 13:50:54;;;;;;;7.10;2.27;;;;;;;;;;5072284;28;20028;-58
2021/09/25 13:53:21;;;;;;;5.13;2.27;;;;;;;;;;5070280;28;20020;-58
2021/09/25 13:55:48;;;;;;;4.10;2.00;;;;;;;;;;5067494;28;20032;-58
2021/09/25 13:58:15;;;;;;;2.90;1.63;;;;;;;;;;5067869;28;20028;-58
2021/09/25 14:00:42;;;;;;;4.90;1.67;;;;;;;;;;5067626;28;20081;-58
2021/09/25 14:03:08;;;;;;;3.27;2.00;;;;;;;;;;5069494;28;20070;-58
2021/09/25 14:05:35;;;;;;;7.10;1.87;;;;;;;;;;5072477;28;20025;-58
2021/09/25 14:08:06;;;;;;;4.80;1.63;;;;;;;;;;5072334;28;20021;-58
2021/09/25 14:10:34;;;;;;;5.37;1.70;;;;;;;;;;5072473;28;20035;-59
2021/09/25 14:13:05;;;;;;;2.07;1.43;;;;;;;;;;5072001;28;20037;-58
2021/09/25 14:15:31;;;;;;;3.63;1.60;;;;;;;;;;5069891;28;20028;-58
2021/09/25 14:17:58;;;;;;;2.37;1.60;;;;;;;;;;5067441;28;20020;-58
2021/09/25 14:20:25;;;;;;;4.10;1.30;;;;;;;;;;5066851;28;20047;-58
2021/09/25 14:22:52;;;;;;;2.60;1.60;;;;;;;;;;5067068;28;20398;-58
2021/09/25 14:25:19;;;;;;;5.43;1.97;;;;;;;;;;5069056;28;20554;-58
2021/09/25 14:27:46;;;;;;;3.13;1.70;;;;;;;;;;5072487;28;20025;-58
2021/09/25 14:30:13;;;;;;;2.93;1.43;;;;;;;;;;5072275;28;20032;-58
2021/09/25 14:32:39;;;;;;;3.33;1.90;;;;;;;;;;5072067;28;20487;-59
2021/09/25 14:35:06;;;;;;;3.07;1.47;;;;;;;;;;5072287;28;20353;-59
2021/09/25 14:37:33;;;;;;;2.77;1.67;;;;;;;;;;5069919;28;20028;-60
2021/09/25 14:40:00;;;;;;;4.40;1.80;;;;;;;;;;5067302;28;20480;-59
2021/09/25 14:42:27;;;;;;;3.60;1.07;;;;;;;;;;5066876;28;20032;-59
2021/09/25 14:44:54;;;;;;;2.00;1.03;;;;;;;;;;5066697;28;20037;-59
2021/09/25 14:47:21;;;;;;;1.87;0.97;;;;;;;;;;5068651;28;20036;-59
2021/09/25 14:49:48;;;;;;;2.80;1.10;;;;;;;;;;5072138;28;20027;-59
2021/09/25 14:52:16;;;;;;;3.10;1.10;;;;;;;;;;5071805;28;20123;-59
2021/09/25 14:54:43;;;;;;;2.73;1.33;;;;;;;;;;5071589;28;20032;-59
2021/09/25 14:57:10;;;;;;;1.60;0.83;;;;;;;;;;5074204;28;20577;-59
2021/09/25 14:59:37;;;;;;;1.60;1.20;;;;;;;;;;5073579;28;20033;-59